createdAt,value
2022-07-30T00:00:11.596Z,6.47
2022-07-30T00:03:12.707Z,6.43
2022-07-30T00:06:13.770Z,7.18
2022-07-30T00:09:14.589Z,7.95
2022-07-30T00:12:15.665Z,6.97
2022-07-30T00:15:16.687Z,8.30
2022-07-30T00:18:17.868Z,9.07
2022-07-30T00:21:20.142Z,8.02
2022-07-30T00:24:35.692Z,7.40
2022-07-30T00:27:37.453Z,7.93
2022-07-30T00:30:40.839Z,9.25
2022-07-30T00:33:41.980Z,8.75
2022-07-30T00:36:42.803Z,9.52
2022-07-30T00:39:43.904Z,8.98
2022-07-30T00:42:47.820Z,9.18
2022-07-30T00:45:49.423Z,9.82
2022-07-30T00:48:50.757Z,9.68
2022-07-30T00:51:52.706Z,9.30
2022-07-30T00:54:53.520Z,8.75
2022-07-30T00:57:54.452Z,8.80
2022-07-30T01:00:55.576Z,8.40
2022-07-30T01:03:56.722Z,8.63
2022-07-30T01:06:58.367Z,9.93
2022-07-30T01:09:59.860Z,9.98
2022-07-30T01:13:02.168Z,10.75
2022-07-30T01:16:03.142Z,7.88
2022-07-30T01:19:32.848Z,8.93
2022-07-30T01:22:47.939Z,8.60
2022-07-30T01:25:58.780Z,9.35
2022-07-30T01:29:03.020Z,11.63
2022-07-30T01:32:07.898Z,11.52
2022-07-30T01:35:11.806Z,10.90
2022-07-30T01:38:17.346Z,10.40
2022-07-30T01:41:20.044Z,12.40
2022-07-30T01:44:26.188Z,10.02
2022-07-30T01:47:30.399Z,9.38
2022-07-30T01:50:32.958Z,10.55
2022-07-30T01:53:39.665Z,10.63
2022-07-30T01:56:43.224Z,11.80
2022-07-30T01:59:50.589Z,11.73
2022-07-30T02:02:54.479Z,11.95
2022-07-30T02:06:17.220Z,12.85
2022-07-30T02:09:28.777Z,14.82
2022-07-30T02:12:34.234Z,14.43
2022-07-30T02:15:56.511Z,14.32
2022-07-30T02:19:13.853Z,14.13
2022-07-30T02:22:18.895Z,12.90
2022-07-30T02:25:22.911Z,15.48
2022-07-30T02:28:30.768Z,17.88
2022-07-30T02:31:34.332Z,14.52
2022-07-30T02:34:40.425Z,14.02
2022-07-30T02:37:44.440Z,13.07
2022-07-30T02:40:47.132Z,13.25
2022-07-30T02:43:51.463Z,13.13
2022-07-30T02:46:58.129Z,12.23
2022-07-30T02:50:20.943Z,12.90
2022-07-30T02:53:24.964Z,13.45
2022-07-30T02:56:28.052Z,14.60
2022-07-30T02:59:32.843Z,13.32
2022-07-30T03:02:36.384Z,14.00
2022-07-30T03:05:41.385Z,13.68
2022-07-30T03:08:45.448Z,13.43
2022-07-30T03:11:49.571Z,13.98
2022-07-30T03:14:51.947Z,13.98
2022-07-30T03:17:55.578Z,13.23
2022-07-30T03:21:01.377Z,12.18
2022-07-30T03:24:06.722Z,14.98
2022-07-30T03:27:10.120Z,11.95
2022-07-30T03:30:13.554Z,15.63
2022-07-30T03:33:16.342Z,19.95
2022-07-30T03:36:19.357Z,13.75
2022-07-30T03:39:22.632Z,15.18
2022-07-30T03:42:24.803Z,17.90
2022-07-30T03:45:26.978Z,14.90
2022-07-30T03:48:35.747Z,15.75
2022-07-30T03:51:37.933Z,15.35
2022-07-30T03:54:40.192Z,15.23
2022-07-30T03:58:07.883Z,16.77
2022-07-30T04:01:10.256Z,17.75
2022-07-30T04:04:11.718Z,14.40
2022-07-30T04:07:14.666Z,15.02
2022-07-30T04:10:17.115Z,15.32
2022-07-30T04:13:33.091Z,12.98
2022-07-30T04:17:01.321Z,11.52
2022-07-30T04:20:16.441Z,12.52
2022-07-30T04:23:20.128Z,14.30
2022-07-30T04:26:22.831Z,13.57
2022-07-30T04:29:24.868Z,12.93
2022-07-30T04:32:28.683Z,14.45
2022-07-30T04:35:58.983Z,13.95
2022-07-30T04:39:06.091Z,14.55
2022-07-30T04:42:07.110Z,14.40
2022-07-30T04:45:11.629Z,19.80
2022-07-30T04:48:29.274Z,14.65
2022-07-30T04:51:38.566Z,14.80
2022-07-30T04:54:56.038Z,14.32
2022-07-30T04:57:59.666Z,15.80
2022-07-30T05:01:06.216Z,15.63
2022-07-30T05:04:09.714Z,14.23
2022-07-30T05:07:14.717Z,13.82
2022-07-30T05:10:17.737Z,15.23
2022-07-30T05:13:18.842Z,14.95
2022-07-30T05:16:23.342Z,15.80
2022-07-30T05:19:25.333Z,16.60
2022-07-30T05:22:30.109Z,14.48
2022-07-30T05:25:31.376Z,14.23
2022-07-30T05:28:43.584Z,16.52
2022-07-30T05:31:50.065Z,15.18
2022-07-30T05:34:52.415Z,16.73
2022-07-30T05:37:53.202Z,18.05
2022-07-30T05:40:54.506Z,12.43
2022-07-30T05:44:14.386Z,11.48
2022-07-30T05:47:15.625Z,11.57
2022-07-30T05:50:17.285Z,11.55
2022-07-30T05:53:18.292Z,11.15
2022-07-30T05:56:54.895Z,8.45
2022-07-30T06:00:07.637Z,9.73
2022-07-30T06:03:17.959Z,8.55
2022-07-30T06:06:41.667Z,6.90
2022-07-30T06:09:43.179Z,7.38
2022-07-30T06:12:44.927Z,7.38
2022-07-30T06:15:46.214Z,5.63
2022-07-30T06:18:47.503Z,8.80
2022-07-30T06:22:01.568Z,6.40
2022-07-30T06:25:09.178Z,4.93
2022-07-30T06:28:35.938Z,5.63
2022-07-30T06:31:31.777Z,4.97
2022-07-30T06:34:33.199Z,5.22
2022-07-30T06:38:07.484Z,4.47
2022-07-30T06:41:02.604Z,4.47
2022-07-30T06:44:25.434Z,6.40
2022-07-30T06:48:00.800Z,4.68
2022-07-30T06:51:05.466Z,4.40
2022-07-30T06:54:06.868Z,4.57
2022-07-30T06:57:10.761Z,4.63
2022-07-30T07:00:12.229Z,6.68
2022-07-30T07:03:16.286Z,4.57
2022-07-30T07:06:17.356Z,5.45
2022-07-30T07:09:18.663Z,4.82
2022-07-30T07:12:33.413Z,4.85
2022-07-30T07:15:36.998Z,5.03
2022-07-30T07:18:42.169Z,5.65
2022-07-30T07:21:46.698Z,6.70
2022-07-30T07:24:47.936Z,4.70
2022-07-30T07:28:12.094Z,4.65
2022-07-30T07:32:04.452Z,4.80
2022-07-30T07:34:36.930Z,5.47
2022-07-30T07:37:37.953Z,5.00
2022-07-30T07:40:40.863Z,5.10
2022-07-30T07:43:41.832Z,5.30
2022-07-30T07:46:46.523Z,6.22
2022-07-30T07:49:47.905Z,4.85
2022-07-30T07:52:49.418Z,5.03
2022-07-30T07:55:50.986Z,5.43
2022-07-30T07:58:56.654Z,6.03
2022-07-30T08:01:59.057Z,6.30
2022-07-30T08:05:24.160Z,6.30
2022-07-30T08:08:31.963Z,5.47
2022-07-30T08:12:05.726Z,5.63
2022-07-30T08:15:32.170Z,7.28
2022-07-30T08:18:39.326Z,5.47
2022-07-30T08:21:51.001Z,6.63
2022-07-30T08:24:52.709Z,5.88
2022-07-30T08:27:53.696Z,8.73
2022-07-30T08:31:00.507Z,5.95
2022-07-30T08:34:03.616Z,6.83
2022-07-30T08:37:04.901Z,6.90
2022-07-30T08:40:07.602Z,6.30
2022-07-30T08:43:11.858Z,5.97
2022-07-30T08:46:15.905Z,6.60
2022-07-30T08:49:26.211Z,5.28
2022-07-30T08:52:28.777Z,4.82
2022-07-30T08:55:34.327Z,10.50
2022-07-30T08:58:35.674Z,4.15
2022-07-30T09:01:37.137Z,4.88
2022-07-30T09:04:38.209Z,6.68
2022-07-30T09:07:40.547Z,11.75
2022-07-30T09:13:54.881Z,4.18
2022-07-30T09:17:00.250Z,4.05
2022-07-30T09:20:06.866Z,4.05
2022-07-30T09:23:10.518Z,4.82
2022-07-30T09:26:33.262Z,4.90
2022-07-30T09:29:59.759Z,4.30
2022-07-30T09:33:33.208Z,4.28
2022-07-30T09:36:57.245Z,3.25
2022-07-30T09:40:29.626Z,3.92
2022-07-30T09:43:53.351Z,3.70
2022-07-30T09:47:48.602Z,12.02
2022-07-30T09:50:54.663Z,3.42
2022-07-30T09:54:01.784Z,6.43
2022-07-30T09:57:25.726Z,3.42
2022-07-30T10:00:33.436Z,4.20
2022-07-30T10:03:47.975Z,8.13
2022-07-30T10:07:05.314Z,2.90
2022-07-30T10:10:17.538Z,3.63
2022-07-30T10:13:21.432Z,3.90
2022-07-30T10:16:29.625Z,3.15
2022-07-30T10:19:39.799Z,3.97
2022-07-30T10:23:09.323Z,3.50
2022-07-30T10:26:11.530Z,3.58
2022-07-30T10:29:33.446Z,4.22
2022-07-30T10:32:37.973Z,3.97
2022-07-30T10:35:43.616Z,2.60
2022-07-30T10:38:52.698Z,2.53
2022-07-30T10:42:14.666Z,4.03
2022-07-30T10:45:52.126Z,3.00
2022-07-30T10:48:55.702Z,3.10
2022-07-30T10:51:59.328Z,4.03
2022-07-30T10:55:00.420Z,5.03
2022-07-30T10:58:12.383Z,5.20
2022-07-30T11:01:18.328Z,2.97
2022-07-30T11:04:30.564Z,4.60
2022-07-30T11:07:31.805Z,3.83
2022-07-30T11:10:41.135Z,4.18
2022-07-30T11:13:56.423Z,3.42
2022-07-30T11:17:01.267Z,2.50
2022-07-30T11:20:11.963Z,3.45
2022-07-30T11:23:19.363Z,4.15
2022-07-30T11:26:41.189Z,4.28
2022-07-30T11:29:50.718Z,3.42
2022-07-30T11:32:56.220Z,5.70
2022-07-30T11:36:11.763Z,6.20
2022-07-30T11:39:13.188Z,6.25
2022-07-30T11:42:41.083Z,3.10
2022-07-30T11:45:42.717Z,3.17
2022-07-30T11:49:08.749Z,2.63
2022-07-30T11:55:10.974Z,2.63
2022-07-30T11:58:35.632Z,4.03
2022-07-30T12:01:36.995Z,2.83
2022-07-30T12:04:44.531Z,2.75
2022-07-30T12:07:45.805Z,2.67
2022-07-30T12:11:00.850Z,4.07
2022-07-30T12:14:03.618Z,3.53
2022-07-30T12:17:04.965Z,4.10
2022-07-30T12:20:19.490Z,2.50
2022-07-30T12:23:21.574Z,2.88
2022-07-30T12:26:30.202Z,3.08
2022-07-30T12:29:32.522Z,4.40
2022-07-30T12:32:34.332Z,3.95
2022-07-30T12:35:50.653Z,4.32
2022-07-30T12:38:53.199Z,2.63
2022-07-30T12:41:58.649Z,3.08
2022-07-30T12:45:00.113Z,3.30
2022-07-30T12:48:01.311Z,2.92
2022-07-30T12:51:10.911Z,3.40
2022-07-30T12:54:19.553Z,4.35
2022-07-30T12:57:20.549Z,2.67
2022-07-30T13:00:33.096Z,2.83
2022-07-30T13:03:39.582Z,3.05
2022-07-30T13:09:43.087Z,5.05
2022-07-30T13:12:45.860Z,2.80
2022-07-30T13:16:01.412Z,2.75
2022-07-30T13:19:13.687Z,6.80
2022-07-30T13:22:15.084Z,3.03
2022-07-30T13:25:16.265Z,2.80
2022-07-30T13:28:18.278Z,3.17
2022-07-30T13:31:19.320Z,2.67
2022-07-30T13:34:20.381Z,2.30
2022-07-30T13:37:21.318Z,2.67
2022-07-30T13:40:24.523Z,3.20
2022-07-30T13:43:25.737Z,2.80
2022-07-30T13:46:27.037Z,5.32
2022-07-30T13:49:28.689Z,6.00
2022-07-30T13:52:31.366Z,3.03
2022-07-30T13:55:32.734Z,3.40
2022-07-30T13:58:36.023Z,4.35
2022-07-30T14:01:38.278Z,3.08
2022-07-30T14:04:39.361Z,3.03
2022-07-30T14:07:41.143Z,2.85
2022-07-30T14:10:42.209Z,2.72
2022-07-30T14:13:43.069Z,5.68
2022-07-30T14:16:45.533Z,2.30
2022-07-30T14:19:47.606Z,3.00
2022-07-30T14:22:48.654Z,2.95
2022-07-30T14:25:50.120Z,2.60
2022-07-30T14:28:51.367Z,2.38
2022-07-30T14:31:52.987Z,3.20
2022-07-30T14:34:54.318Z,3.22
2022-07-30T14:37:55.064Z,3.55
2022-07-30T14:40:55.878Z,3.25
2022-07-30T14:43:56.993Z,2.50
2022-07-30T14:46:58.442Z,2.50
2022-07-30T14:49:59.845Z,2.13
2022-07-30T14:53:00.836Z,2.10
2022-07-30T14:56:01.863Z,6.20
2022-07-30T14:59:02.706Z,2.65
2022-07-30T15:02:04.151Z,2.17
2022-07-30T15:05:11.628Z,2.58
2022-07-30T15:08:12.857Z,2.40
2022-07-30T15:11:13.919Z,2.58
2022-07-30T15:14:14.816Z,2.50
2022-07-30T15:17:16.400Z,2.88
2022-07-30T15:20:18.107Z,3.38
2022-07-30T15:23:19.045Z,6.43
2022-07-30T15:26:19.909Z,3.90
2022-07-30T15:29:21.226Z,2.30
2022-07-30T15:32:22.065Z,2.60
2022-07-30T15:35:23.013Z,3.22
2022-07-30T15:38:23.867Z,2.95
2022-07-30T15:41:24.731Z,3.22
2022-07-30T15:44:25.679Z,3.03
2022-07-30T15:47:28.923Z,2.80
2022-07-30T15:50:30.390Z,3.33
2022-07-30T15:53:32.910Z,2.50
2022-07-30T15:56:34.081Z,2.50
2022-07-30T15:59:35.089Z,2.78
2022-07-30T16:02:37.792Z,3.13
2022-07-30T16:05:51.997Z,2.40
2022-07-30T16:08:53.886Z,7.05
2022-07-30T16:11:55.470Z,2.65
2022-07-30T16:14:57.075Z,2.60
2022-07-30T16:17:58.112Z,12.25
2022-07-30T16:21:01.371Z,7.53
2022-07-30T16:24:03.940Z,4.13
2022-07-30T16:27:05.064Z,2.92
2022-07-30T16:30:07.233Z,2.40
2022-07-30T16:33:08.251Z,2.40
2022-07-30T16:36:10.257Z,2.03
2022-07-30T16:39:11.755Z,2.22
2022-07-30T16:42:12.824Z,2.05
2022-07-30T16:45:13.702Z,2.30
2022-07-30T16:48:14.949Z,2.08
2022-07-30T16:51:16.106Z,1.92
2022-07-30T16:54:17.119Z,1.95
2022-07-30T16:57:18.425Z,1.90
2022-07-30T17:00:19.575Z,2.15
2022-07-30T17:03:20.899Z,2.55
2022-07-30T17:06:21.609Z,2.75
2022-07-30T17:09:22.836Z,2.30
2022-07-30T17:12:27.039Z,2.45
2022-07-30T17:15:32.409Z,2.75
2022-07-30T17:18:34.371Z,3.38
2022-07-30T17:21:35.697Z,4.68
2022-07-30T17:24:36.605Z,4.07
2022-07-30T17:27:38.135Z,3.15
2022-07-30T17:30:39.000Z,5.00
2022-07-30T17:33:39.746Z,3.83
2022-07-30T17:36:51.492Z,3.75
2022-07-30T17:40:27.715Z,2.63
2022-07-30T17:43:15.676Z,2.50
2022-07-30T17:46:16.787Z,2.78
2022-07-30T17:49:17.760Z,2.28
2022-07-30T17:52:23.338Z,3.75
2022-07-30T17:55:28.402Z,3.60
2022-07-30T17:58:29.273Z,4.35
2022-07-30T18:01:31.094Z,2.45
2022-07-30T18:04:32.618Z,2.60
2022-07-30T18:07:33.461Z,2.80
2022-07-30T18:10:34.260Z,3.58
2022-07-30T18:13:36.453Z,2.70
2022-07-30T18:16:37.763Z,2.92
2022-07-30T18:19:39.239Z,2.60
2022-07-30T18:22:42.850Z,2.47
2022-07-30T18:25:51.936Z,2.65
2022-07-30T18:28:55.411Z,3.30
2022-07-30T18:31:57.016Z,4.65
2022-07-30T18:34:58.041Z,2.55
2022-07-30T18:37:58.952Z,3.03
2022-07-30T18:41:00.250Z,3.55
2022-07-30T18:44:01.046Z,2.80
2022-07-30T18:47:02.100Z,3.17
2022-07-30T18:50:03.106Z,2.78
2022-07-30T18:53:15.704Z,2.92
2022-07-30T18:56:16.754Z,3.20
2022-07-30T18:59:17.941Z,2.72
2022-07-30T19:02:18.837Z,2.85
2022-07-30T19:05:20.070Z,3.47
2022-07-30T19:08:21.518Z,2.25
2022-07-30T19:11:23.447Z,2.88
2022-07-30T19:14:24.642Z,4.30
2022-07-30T19:17:46.390Z,2.88
2022-07-30T19:20:48.882Z,3.63
2022-07-30T19:23:49.992Z,2.80
2022-07-30T19:26:51.364Z,4.20
2022-07-30T19:29:52.655Z,3.20
2022-07-30T19:32:53.283Z,2.75
2022-07-30T19:35:53.928Z,5.68
2022-07-30T19:38:57.784Z,2.90
2022-07-30T19:41:59.326Z,5.30
2022-07-30T19:45:01.288Z,3.50
2022-07-30T19:48:29.661Z,2.90
2022-07-30T19:52:10.216Z,4.38
2022-07-30T19:54:54.074Z,4.72
2022-07-30T19:57:55.409Z,3.38
2022-07-30T20:00:56.460Z,4.35
2022-07-30T20:03:57.518Z,4.03
2022-07-30T20:07:02.409Z,3.78
2022-07-30T20:10:07.210Z,3.65
2022-07-30T20:13:08.100Z,5.25
2022-07-30T20:16:12.290Z,3.13
2022-07-30T20:19:15.696Z,4.28
2022-07-30T20:22:17.218Z,6.13
2022-07-30T20:25:19.141Z,8.32
2022-07-30T20:28:22.727Z,3.80
2022-07-30T20:31:27.126Z,6.07
2022-07-30T20:34:30.906Z,5.75
2022-07-30T20:37:33.702Z,11.50
2022-07-30T20:40:54.649Z,4.57
2022-07-30T20:43:56.043Z,4.75
2022-07-30T20:46:57.391Z,5.55
2022-07-30T20:50:00.692Z,5.13
2022-07-30T20:53:01.796Z,7.25
2022-07-30T20:56:02.812Z,6.18
2022-07-30T20:59:04.175Z,5.05
2022-07-30T21:02:05.608Z,3.15
2022-07-30T21:05:08.100Z,3.58
2022-07-30T21:08:12.210Z,3.17
2022-07-30T21:11:14.506Z,3.33
2022-07-30T21:14:17.590Z,3.45
2022-07-30T21:17:19.169Z,4.03
2022-07-30T21:20:28.063Z,6.00
2022-07-30T21:23:29.175Z,5.25
2022-07-30T21:26:30.898Z,3.80
2022-07-30T21:29:33.114Z,7.50
2022-07-30T21:32:38.388Z,16.92
2022-07-30T21:35:39.667Z,13.20
2022-07-30T21:38:42.887Z,6.40
2022-07-30T21:41:44.164Z,11.73
2022-07-30T21:44:45.705Z,5.15
2022-07-30T21:47:48.128Z,3.28
2022-07-30T21:50:49.398Z,3.10
2022-07-30T21:53:50.222Z,3.25
2022-07-30T21:56:53.061Z,2.95
2022-07-30T21:59:58.295Z,3.58
2022-07-30T22:02:59.749Z,6.07
2022-07-30T22:06:01.606Z,3.30
2022-07-30T22:09:19.723Z,3.67
2022-07-30T22:12:29.205Z,3.20
2022-07-30T22:15:32.946Z,3.20
2022-07-30T22:18:33.766Z,4.03
2022-07-30T22:21:34.600Z,3.63
2022-07-30T22:24:35.330Z,3.72
2022-07-30T22:27:56.052Z,8.02
2022-07-30T22:30:58.307Z,6.60
2022-07-30T22:33:59.593Z,6.78
2022-07-30T22:37:01.622Z,3.85
2022-07-30T22:40:03.775Z,5.60
2022-07-30T22:43:12.635Z,4.07
2022-07-30T22:46:14.886Z,6.60
2022-07-30T22:49:46.058Z,4.38
2022-07-30T22:53:00.153Z,4.60
2022-07-30T22:56:18.617Z,6.78
2022-07-30T22:59:58.648Z,6.32
2022-07-30T23:02:44.286Z,3.85
2022-07-30T23:05:56.398Z,4.68
2022-07-30T23:08:57.998Z,4.20
2022-07-30T23:11:58.761Z,4.97
2022-07-30T23:15:00.462Z,6.53
2022-07-30T23:18:01.430Z,3.92
2022-07-30T23:21:03.100Z,5.28
2022-07-30T23:24:04.970Z,5.60
2022-07-30T23:27:06.267Z,4.70
2022-07-30T23:30:09.937Z,4.45
2022-07-30T23:33:10.948Z,4.18
2022-07-30T23:36:11.700Z,3.63
2022-07-30T23:39:13.164Z,4.20
2022-07-30T23:42:13.997Z,3.30
2022-07-30T23:45:15.233Z,3.47
2022-07-30T23:48:16.159Z,3.08
2022-07-30T23:51:17.438Z,4.55
2022-07-30T23:54:19.281Z,4.93
2022-07-30T23:57:20.164Z,4.45
